createdAt,value
2017-12-14T08:05:02.053Z,30
2017-12-14T08:05:42.580Z,25
2017-12-14T08:06:23.103Z,25
2017-12-14T08:07:03.614Z,30
2017-12-14T08:07:44.158Z,30
2017-12-14T08:08:24.640Z,30
2017-12-14T08:09:05.164Z,30
2017-12-14T08:09:45.689Z,35
2017-12-14T08:10:26.187Z,40
2017-12-14T08:11:06.713Z,45
2017-12-14T08:11:47.214Z,45
2017-12-14T08:12:27.747Z,50
2017-12-14T08:13:08.233Z,50
2017-12-14T08:13:48.756Z,45
2017-12-14T08:14:29.270Z,40
2017-12-14T08:15:09.784Z,40
2017-12-14T08:15:50.310Z,40
2017-12-14T08:16:30.829Z,45
2017-12-14T08:17:11.344Z,55
2017-12-14T08:17:51.878Z,60
2017-12-14T08:18:32.387Z,65
2017-12-14T08:19:12.909Z,65
2017-12-14T08:19:53.435Z,65
2017-12-14T08:20:33.963Z,65
2017-12-14T08:21:14.479Z,65
2017-12-14T08:21:55.003Z,60
2017-12-14T08:22:35.531Z,55
2017-12-14T08:23:16.053Z,55
2017-12-14T08:23:56.574Z,55
2017-12-14T08:24:37.108Z,60
2017-12-14T08:25:17.635Z,65
2017-12-14T08:25:58.161Z,70
2017-12-14T08:26:38.668Z,65
2017-12-14T08:27:19.190Z,70
2017-12-14T08:27:59.749Z,80
2017-12-14T08:28:40.269Z,80
2017-12-14T08:29:20.791Z,80
2017-12-14T08:30:01.318Z,75
2017-12-14T08:30:41.839Z,75
2017-12-14T08:31:22.352Z,80
2017-12-14T08:32:02.890Z,85
2017-12-14T08:32:43.404Z,85
2017-12-14T08:33:23.925Z,90
2017-12-14T08:34:04.440Z,90
2017-12-14T08:34:44.964Z,90
2017-12-14T08:35:25.481Z,80
2017-12-14T08:36:06.010Z,60
2017-12-14T08:36:46.522Z,45
2017-12-14T08:37:27.054Z,40
2017-12-14T08:38:07.568Z,35
2017-12-14T08:38:48.085Z,30
2017-12-14T08:39:28.579Z,25
2017-12-14T08:40:09.101Z,25
2017-12-14T08:40:49.637Z,30
2017-12-14T08:41:30.163Z,30
2017-12-14T08:42:10.678Z,30
2017-12-14T08:42:51.179Z,30
2017-12-14T08:43:31.705Z,45
2017-12-14T08:44:12.235Z,60
2017-12-14T08:44:52.743Z,80
2017-12-14T08:45:33.270Z,85
2017-12-14T08:46:13.792Z,80
2017-12-14T08:46:54.328Z,85
2017-12-14T08:47:34.848Z,85
2017-12-14T08:48:15.381Z,90
2017-12-14T08:48:55.916Z,90
2017-12-14T08:49:36.444Z,90
2017-12-14T08:50:16.965Z,95
2017-12-14T08:50:57.484Z,105
2017-12-14T08:51:38.064Z,105
2017-12-14T08:52:18.579Z,105
2017-12-14T08:52:59.103Z,100
2017-12-14T08:53:39.587Z,100
2017-12-14T08:54:20.110Z,100
2017-12-14T08:55:00.649Z,95
2017-12-14T08:55:41.196Z,95
2017-12-14T08:56:21.704Z,95
2017-12-14T08:57:02.243Z,95
2017-12-14T08:57:42.778Z,85
2017-12-14T08:58:23.276Z,85
2017-12-14T08:59:03.793Z,90
2017-12-14T08:59:44.335Z,90
2017-12-14T09:00:24.848Z,90
2017-12-14T09:01:05.351Z,85
2017-12-14T09:01:45.869Z,85
2017-12-14T09:02:26.394Z,90
2017-12-14T09:03:06.905Z,90
2017-12-14T09:03:47.426Z,90
2017-12-14T09:04:27.970Z,90
2017-12-14T09:05:08.502Z,90
2017-12-14T09:05:49.048Z,90
2017-12-14T09:06:29.570Z,90
2017-12-14T09:07:10.105Z,90
2017-12-14T09:07:50.627Z,85
2017-12-14T09:08:31.151Z,85
2017-12-14T09:09:11.682Z,85
2017-12-14T09:09:52.199Z,80
2017-12-14T09:10:32.736Z,80
2017-12-14T09:11:13.271Z,80
2017-12-14T09:11:53.805Z,80
2017-12-14T09:12:34.327Z,80
2017-12-14T09:13:14.862Z,80
2017-12-14T09:13:55.391Z,80
2017-12-14T09:14:35.922Z,85
2017-12-14T09:15:16.423Z,85
2017-12-14T09:15:56.959Z,90
2017-12-14T09:16:37.504Z,95
2017-12-14T09:17:18.005Z,100
2017-12-14T09:17:58.532Z,105
2017-12-14T09:18:39.043Z,115
2017-12-14T09:19:19.586Z,120
2017-12-14T09:20:00.123Z,130
2017-12-14T09:20:40.656Z,135
2017-12-14T09:21:21.175Z,140
2017-12-14T09:22:01.692Z,145
2017-12-14T09:22:42.230Z,140
2017-12-14T09:23:22.748Z,145
2017-12-14T09:24:03.347Z,145
2017-12-14T09:24:43.881Z,145
2017-12-14T09:25:24.403Z,145
2017-12-14T09:26:04.961Z,145
2017-12-14T09:26:45.468Z,150
2017-12-14T09:27:26.029Z,150
2017-12-14T09:28:06.546Z,155
2017-12-14T09:28:47.074Z,155
2017-12-14T09:29:27.593Z,160
2017-12-14T09:30:08.119Z,165
2017-12-14T09:30:48.660Z,180
2017-12-14T09:31:29.176Z,170
2017-12-14T09:32:09.690Z,190
2017-12-14T09:32:50.192Z,195
2017-12-14T09:33:30.725Z,190
2017-12-14T09:34:11.283Z,225
2017-12-14T09:34:51.771Z,230
2017-12-14T09:35:32.298Z,230
2017-12-14T09:36:12.834Z,185
2017-12-14T09:36:53.339Z,245
2017-12-14T09:37:33.843Z,340
2017-12-14T09:38:14.387Z,280
2017-12-14T09:38:54.902Z,190
2017-12-14T09:39:35.422Z,190
2017-12-14T09:40:15.961Z,175
2017-12-14T09:40:56.489Z,180
2017-12-14T09:41:37.028Z,170
2017-12-14T09:42:17.522Z,165
2017-12-14T09:42:58.054Z,150
2017-12-14T09:43:38.576Z,135
2017-12-14T09:44:19.093Z,120
2017-12-14T09:44:59.618Z,105
2017-12-14T09:45:40.147Z,100
2017-12-14T09:46:20.683Z,105
2017-12-14T09:47:01.188Z,110
2017-12-14T09:47:41.698Z,130
2017-12-14T09:48:22.238Z,150
2017-12-14T09:49:02.775Z,150
2017-12-14T09:49:43.347Z,130
2017-12-14T09:50:23.878Z,105
2017-12-14T09:51:04.476Z,90
2017-12-14T09:51:45.002Z,75
2017-12-14T09:52:25.549Z,70
2017-12-14T09:53:06.054Z,65
2017-12-14T09:53:46.572Z,55
2017-12-14T09:54:27.101Z,50
2017-12-14T09:55:07.668Z,50
2017-12-14T09:55:48.200Z,50
2017-12-14T09:56:28.731Z,55
2017-12-14T09:57:09.279Z,60
2017-12-14T09:57:49.847Z,65
2017-12-14T09:58:30.331Z,60
2017-12-14T09:59:10.858Z,55
2017-12-14T09:59:51.391Z,50
2017-12-14T10:00:31.930Z,50
2017-12-14T10:01:12.439Z,65
2017-12-14T10:01:52.957Z,75
2017-12-14T10:02:33.485Z,70
2017-12-14T10:03:14.002Z,70
2017-12-14T10:03:54.556Z,80
2017-12-14T10:04:35.074Z,80
2017-12-14T10:05:15.576Z,80
2017-12-14T10:05:56.154Z,85
2017-12-14T10:06:36.653Z,95
2017-12-14T10:07:17.159Z,100
2017-12-14T10:07:57.705Z,100
2017-12-14T10:08:38.236Z,100
2017-12-14T10:09:18.776Z,90
2017-12-14T10:09:59.311Z,95
2017-12-14T10:10:39.854Z,95
2017-12-14T10:11:20.386Z,95
2017-12-14T10:12:00.905Z,100
2017-12-14T10:12:41.444Z,100
2017-12-14T10:13:21.972Z,95
2017-12-14T10:14:02.485Z,95
2017-12-14T10:14:43.024Z,95
2017-12-14T10:15:23.559Z,100
2017-12-14T10:16:04.104Z,100
2017-12-14T10:16:44.630Z,95
2017-12-14T10:17:25.143Z,95
2017-12-14T10:18:05.664Z,90
2017-12-14T10:18:46.205Z,90
2017-12-14T10:19:26.742Z,85
2017-12-14T10:20:07.281Z,75
2017-12-14T10:20:47.828Z,70
2017-12-14T10:21:28.355Z,75
2017-12-14T10:22:08.884Z,80
2017-12-14T10:22:49.419Z,85
2017-12-14T10:23:29.922Z,75
2017-12-14T10:24:10.428Z,70
2017-12-14T10:24:51.180Z,65
2017-12-14T10:25:31.715Z,60
2017-12-14T10:26:13.314Z,70
2017-12-14T10:26:53.982Z,80
2017-12-14T10:27:34.499Z,75
2017-12-14T10:28:15.037Z,70
2017-12-14T10:28:55.567Z,70
2017-12-14T10:29:36.089Z,60
2017-12-14T10:30:16.627Z,50
2017-12-14T10:30:57.110Z,50
2017-12-14T10:31:37.610Z,55
2017-12-14T10:32:18.166Z,55
2017-12-14T10:32:58.651Z,55
2017-12-14T10:33:39.157Z,55
2017-12-14T10:34:19.694Z,60
2017-12-14T10:35:00.219Z,60
2017-12-14T10:35:40.712Z,60
2017-12-14T10:36:21.253Z,60
2017-12-14T10:37:01.817Z,50
2017-12-14T10:37:42.287Z,45
2017-12-14T10:38:22.827Z,40
2017-12-14T10:39:03.333Z,40
2017-12-14T10:39:43.860Z,35
2017-12-14T10:40:24.389Z,35
2017-12-14T10:41:04.917Z,35
2017-12-14T10:41:45.445Z,30
2017-12-14T10:42:25.983Z,25
2017-12-14T10:43:06.528Z,20
2017-12-14T10:43:47.063Z,25
2017-12-14T10:44:27.583Z,25
2017-12-14T10:45:08.169Z,25
2017-12-14T10:45:48.743Z,25
2017-12-14T10:46:29.150Z,25
2017-12-14T10:47:09.665Z,25
2017-12-14T10:47:50.195Z,30
2017-12-14T10:48:30.717Z,30
2017-12-14T10:49:11.314Z,35
2017-12-14T10:49:51.796Z,35
2017-12-14T10:50:32.305Z,40
2017-12-14T10:51:12.825Z,40
2017-12-14T10:51:53.342Z,45
2017-12-14T10:52:33.881Z,45
2017-12-14T10:53:14.393Z,50
2017-12-14T10:53:54.911Z,45
2017-12-14T10:54:35.465Z,40
2017-12-14T10:55:15.960Z,35
2017-12-14T10:55:56.478Z,30
2017-12-14T10:56:37.012Z,25
2017-12-14T10:57:17.525Z,30
2017-12-14T10:57:58.047Z,30
2017-12-14T10:58:38.591Z,40
2017-12-14T10:59:19.113Z,45
2017-12-14T10:59:59.643Z,45
2017-12-14T11:00:40.165Z,50
2017-12-14T11:01:20.681Z,55
2017-12-14T11:02:01.225Z,60
2017-12-14T11:02:41.756Z,65
2017-12-14T11:03:22.277Z,70
2017-12-14T11:04:02.801Z,75
2017-12-14T11:04:43.345Z,90
2017-12-14T11:05:23.870Z,100
2017-12-14T11:06:04.395Z,105
2017-12-14T11:06:44.900Z,110
2017-12-14T11:07:25.407Z,110
2017-12-14T11:08:05.915Z,110
2017-12-14T11:08:46.448Z,100
2017-12-14T11:09:26.943Z,100
2017-12-14T11:10:07.468Z,100
2017-12-14T11:10:47.979Z,100
2017-12-14T11:11:28.505Z,95
2017-12-14T11:12:09.023Z,95
2017-12-14T11:12:49.564Z,95
2017-12-14T11:13:30.062Z,90
2017-12-14T11:14:10.584Z,85
2017-12-14T11:14:51.102Z,85
2017-12-14T11:15:31.614Z,80
2017-12-14T11:16:12.146Z,80
2017-12-14T11:16:52.713Z,80
2017-12-14T11:17:33.238Z,80
2017-12-14T11:18:13.812Z,80
2017-12-14T11:18:54.324Z,90
2017-12-14T11:19:34.831Z,100
2017-12-14T11:20:15.371Z,110
2017-12-14T11:20:55.907Z,105
2017-12-14T11:21:36.430Z,120
2017-12-14T11:22:16.947Z,120
2017-12-14T11:22:57.470Z,125
2017-12-14T11:23:38.028Z,120
2017-12-14T11:24:18.528Z,115
2017-12-14T11:24:59.056Z,120
2017-12-14T11:25:39.581Z,115
2017-12-14T11:26:20.111Z,120
2017-12-14T11:27:00.641Z,125
2017-12-14T11:27:41.158Z,125
2017-12-14T11:28:21.676Z,125
2017-12-14T11:29:02.203Z,135
2017-12-14T11:29:42.732Z,155
2017-12-14T11:30:23.260Z,150
2017-12-14T11:31:03.781Z,155
2017-12-14T11:31:44.312Z,145
2017-12-14T11:32:24.846Z,125
2017-12-14T11:33:05.362Z,120
2017-12-14T11:33:45.924Z,125
2017-12-14T11:34:26.384Z,120
2017-12-14T11:35:06.867Z,110
2017-12-14T11:35:47.376Z,100
2017-12-14T11:36:27.892Z,90
2017-12-14T11:37:08.394Z,85
2017-12-14T11:37:48.934Z,90
2017-12-14T11:38:29.441Z,90
2017-12-14T11:39:09.978Z,100
2017-12-14T11:39:50.507Z,105
2017-12-14T11:40:31.024Z,100
2017-12-14T11:41:11.540Z,110
2017-12-14T11:41:52.059Z,155
2017-12-14T11:42:32.588Z,155
2017-12-14T11:43:13.097Z,155
2017-12-14T11:43:53.617Z,160
2017-12-14T11:44:34.518Z,150
2017-12-14T11:45:15.019Z,145
2017-12-14T11:45:55.544Z,130
2017-12-14T11:46:36.068Z,140
2017-12-14T11:47:16.592Z,150
2017-12-14T11:47:57.117Z,155
2017-12-14T11:48:37.650Z,140
2017-12-14T11:49:18.182Z,115
2017-12-14T11:49:58.712Z,115
2017-12-14T11:50:39.238Z,110
2017-12-14T11:51:19.790Z,105
2017-12-14T11:52:00.274Z,85
2017-12-14T11:52:40.788Z,70
2017-12-14T11:53:21.320Z,70
2017-12-14T11:54:01.850Z,65
2017-12-14T11:54:42.387Z,50
2017-12-14T11:55:22.884Z,50
2017-12-14T11:56:03.397Z,55
2017-12-14T11:56:43.932Z,60
2017-12-14T11:57:24.453Z,80
2017-12-14T11:58:04.995Z,90
2017-12-14T11:58:45.479Z,85
2017-12-14T11:59:26.011Z,90
2017-12-14T12:00:06.528Z,110
2017-12-14T12:00:47.056Z,115
2017-12-14T12:01:27.573Z,115
2017-12-14T12:02:08.082Z,125
2017-12-14T12:02:48.604Z,120
2017-12-14T12:03:29.125Z,115
2017-12-14T12:04:09.667Z,110
2017-12-14T12:04:50.188Z,100
2017-12-14T12:05:30.705Z,100
2017-12-14T12:06:11.291Z,100
2017-12-14T12:06:51.824Z,100
2017-12-14T12:07:32.349Z,90
2017-12-14T12:08:12.877Z,80
2017-12-14T12:08:53.393Z,65
2017-12-14T12:09:33.936Z,60
2017-12-14T12:10:14.488Z,70
2017-12-14T12:10:55.002Z,90
2017-12-14T12:11:35.518Z,90
2017-12-14T12:12:16.027Z,95
2017-12-14T12:12:56.558Z,85
2017-12-14T12:13:37.072Z,65
2017-12-14T12:14:17.630Z,60
2017-12-14T12:14:58.144Z,65
2017-12-14T12:15:38.662Z,65
2017-12-14T12:16:19.183Z,65
2017-12-14T12:16:59.695Z,70
2017-12-14T12:17:40.213Z,75
2017-12-14T12:18:20.741Z,85
2017-12-14T12:19:01.262Z,85
2017-12-14T12:19:41.780Z,80
2017-12-14T12:20:22.307Z,70
2017-12-14T12:21:02.833Z,50
2017-12-14T12:21:43.341Z,50
2017-12-14T12:22:23.877Z,50
2017-12-14T12:23:04.407Z,60
2017-12-14T12:23:44.941Z,50
2017-12-14T12:24:25.479Z,45
2017-12-14T12:25:05.994Z,40
2017-12-14T12:25:46.513Z,35
2017-12-14T12:26:27.069Z,35
2017-12-14T12:27:07.569Z,65
2017-12-14T12:27:48.137Z,80
2017-12-14T12:28:28.666Z,70
2017-12-14T12:29:09.171Z,60
2017-12-14T12:29:49.715Z,60
2017-12-14T12:30:30.238Z,60
2017-12-14T12:31:10.769Z,80
2017-12-14T12:31:51.285Z,80
2017-12-14T12:32:31.797Z,80
2017-12-14T12:33:12.313Z,80
2017-12-14T12:33:52.813Z,70
2017-12-14T12:34:33.370Z,70
2017-12-14T12:35:13.833Z,80
2017-12-14T12:35:54.310Z,95
2017-12-14T12:36:34.822Z,95
2017-12-14T12:37:15.343Z,95
2017-12-14T12:37:55.856Z,90
2017-12-14T12:38:36.373Z,90
2017-12-14T12:39:16.901Z,90
2017-12-14T12:39:57.374Z,85
2017-12-14T12:40:37.912Z,70
2017-12-14T12:41:18.401Z,65
2017-12-14T12:41:58.926Z,65
2017-12-14T12:42:39.439Z,70
2017-12-14T12:43:19.971Z,70
2017-12-14T12:44:00.481Z,75
2017-12-14T12:44:40.994Z,75
2017-12-14T12:45:21.500Z,80
2017-12-14T12:46:02.060Z,80
2017-12-14T12:46:42.588Z,80
2017-12-14T12:47:23.117Z,80
2017-12-14T12:48:03.654Z,75
2017-12-14T12:48:44.139Z,75
2017-12-14T12:49:24.669Z,75
2017-12-14T12:50:06.125Z,75
2017-12-14T12:50:46.948Z,70
2017-12-14T12:51:27.342Z,65
2017-12-14T12:52:07.888Z,60
2017-12-14T12:52:48.486Z,65
2017-12-14T12:53:29.234Z,65
2017-12-14T12:54:09.776Z,65
2017-12-14T12:54:50.270Z,70
2017-12-14T12:55:30.792Z,65
2017-12-14T12:56:11.293Z,55
2017-12-14T12:56:51.840Z,55
2017-12-14T12:57:32.357Z,60
2017-12-14T12:58:12.862Z,50
2017-12-14T12:58:53.397Z,45
2017-12-14T12:59:33.886Z,45
2017-12-14T13:00:14.410Z,50
2017-12-14T13:00:54.955Z,55
2017-12-14T13:01:35.453Z,55
2017-12-14T13:02:15.944Z,55
2017-12-14T13:02:56.481Z,60
2017-12-14T13:03:37.014Z,55
2017-12-14T13:04:17.531Z,50
2017-12-14T13:04:58.096Z,50
2017-12-14T13:05:38.620Z,50
2017-12-14T13:06:19.152Z,55
2017-12-14T13:06:59.687Z,60
2017-12-14T13:07:40.255Z,60
2017-12-14T13:08:20.755Z,60
2017-12-14T13:09:01.524Z,65
2017-12-14T13:09:42.260Z,65
2017-12-14T13:10:22.937Z,65
2017-12-14T13:11:03.545Z,65
2017-12-14T13:11:44.052Z,65
2017-12-14T13:12:24.622Z,65
2017-12-14T13:13:05.499Z,65
2017-12-14T13:13:46.291Z,65
2017-12-14T13:14:27.566Z,70
2017-12-14T13:15:20.803Z,70
2017-12-14T13:16:03.025Z,70
2017-12-14T13:16:44.833Z,65
2017-12-14T13:17:25.877Z,65
2017-12-14T13:18:06.774Z,65
2017-12-14T13:18:48.437Z,65
2017-12-14T13:19:28.952Z,65
2017-12-14T13:20:09.490Z,65
2017-12-14T13:20:50.011Z,65
2017-12-14T13:21:30.640Z,65
2017-12-14T13:22:12.785Z,60
2017-12-14T13:22:53.317Z,60
2017-12-14T13:23:33.844Z,60
2017-12-14T13:24:14.379Z,60
2017-12-14T13:24:54.920Z,65
2017-12-14T13:25:35.445Z,70
2017-12-14T13:26:15.969Z,75
2017-12-14T13:26:57.433Z,90
2017-12-14T13:29:11.289Z,125
2017-12-14T13:29:51.966Z,130
2017-12-14T13:30:32.542Z,130
2017-12-14T13:31:13.101Z,130
2017-12-14T13:31:53.865Z,125
2017-12-14T13:32:34.250Z,115
2017-12-14T13:33:14.765Z,110
2017-12-14T13:33:55.292Z,105
2017-12-14T13:34:35.805Z,105
2017-12-14T13:35:16.361Z,105
2017-12-14T13:35:57.250Z,115
2017-12-14T13:36:38.575Z,125
2017-12-14T13:37:21.029Z,135
2017-12-14T13:38:01.583Z,135
2017-12-14T13:38:42.391Z,140
2017-12-14T13:39:24.980Z,145
2017-12-14T13:42:05.761Z,120
2017-12-14T13:42:46.388Z,110
2017-12-14T13:43:26.933Z,100
2017-12-14T13:44:07.525Z,105
2017-12-14T13:44:48.147Z,110
2017-12-14T13:45:29.056Z,110
2017-12-14T13:46:09.393Z,115
2017-12-14T13:46:50.273Z,115
2017-12-14T13:47:30.767Z,115
2017-12-14T13:48:11.832Z,115
2017-12-14T13:48:52.444Z,115
2017-12-14T13:49:33.020Z,115
2017-12-14T13:50:13.833Z,130
2017-12-14T13:50:54.504Z,135
2017-12-14T13:51:35.046Z,140
2017-12-14T13:52:15.748Z,160
2017-12-14T13:52:56.245Z,160
2017-12-14T13:53:37.089Z,130
2017-12-14T13:54:18.377Z,130
2017-12-14T13:54:58.727Z,105
2017-12-14T13:55:39.363Z,95
2017-12-14T13:56:19.936Z,85
2017-12-14T13:57:00.405Z,80
2017-12-14T13:57:40.966Z,85
2017-12-14T13:58:21.768Z,115
2017-12-14T13:59:03.304Z,120
2017-12-14T13:59:43.884Z,120
2017-12-14T14:00:24.624Z,110
2017-12-14T14:01:09.934Z,105
2017-12-14T14:01:51.197Z,90
2017-12-14T14:02:31.739Z,80
2017-12-14T14:03:12.382Z,80
2017-12-14T14:03:54.065Z,80
2017-12-14T14:04:35.336Z,80
2017-12-14T14:05:17.923Z,85
2017-12-14T14:06:02.728Z,85
2017-12-14T14:06:56.468Z,85
2017-12-14T14:09:29.611Z,85
2017-12-14T14:10:10.630Z,85
2017-12-14T14:10:51.472Z,85
2017-12-14T14:11:32.153Z,80
2017-12-14T14:12:12.519Z,75
2017-12-14T14:12:53.195Z,75
2017-12-14T14:13:33.828Z,75
2017-12-14T14:14:14.389Z,75
2017-12-14T14:14:54.931Z,75
2017-12-14T14:15:35.368Z,75
2017-12-14T14:16:16.255Z,70
2017-12-14T14:18:50.324Z,65
2017-12-14T14:19:30.828Z,65
2017-12-14T14:20:11.814Z,60
2017-12-14T14:20:54.222Z,55
2017-12-14T14:21:34.643Z,55
2017-12-14T14:22:15.723Z,55
2017-12-14T14:22:56.090Z,50
2017-12-14T14:23:37.052Z,50
2017-12-14T14:24:17.921Z,50
2017-12-14T14:24:58.741Z,45
2017-12-14T14:25:39.124Z,45
2017-12-14T14:26:19.575Z,45
2017-12-14T14:27:01.733Z,45
2017-12-14T14:27:42.305Z,45
2017-12-14T14:28:22.853Z,45
2017-12-14T14:29:03.347Z,50
2017-12-14T14:29:43.846Z,50
2017-12-14T14:30:24.380Z,55
2017-12-14T14:31:04.921Z,55
2017-12-14T14:31:45.459Z,55
2017-12-14T14:32:25.972Z,50
2017-12-14T14:33:06.499Z,50
2017-12-14T14:33:47.030Z,50
2017-12-14T14:34:27.565Z,45
2017-12-14T14:35:08.099Z,45
2017-12-14T14:35:48.622Z,40
2017-12-14T14:36:29.155Z,40
2017-12-14T14:37:09.690Z,35
2017-12-14T14:37:50.218Z,35
2017-12-14T14:38:30.735Z,30
2017-12-14T14:39:11.276Z,30
2017-12-14T14:39:51.803Z,30
2017-12-14T14:40:32.327Z,30
2017-12-14T14:41:12.861Z,30
2017-12-14T14:41:53.391Z,30
2017-12-14T14:42:33.920Z,30
2017-12-14T14:43:14.446Z,30
2017-12-14T14:43:54.969Z,35
2017-12-14T14:44:35.499Z,35
2017-12-14T14:45:16.030Z,35
2017-12-14T14:45:56.578Z,35
2017-12-14T14:46:37.216Z,40
2017-12-14T14:47:18.550Z,35
2017-12-14T14:48:03.190Z,35
2017-12-14T14:48:43.588Z,30
2017-12-14T14:49:24.078Z,30
2017-12-14T14:50:04.609Z,25
2017-12-14T14:50:45.138Z,25
2017-12-14T14:51:25.676Z,25
2017-12-14T14:52:06.852Z,25
2017-12-14T14:52:48.896Z,25
2017-12-14T14:53:29.463Z,25
2017-12-14T14:54:09.949Z,20
2017-12-14T14:54:50.428Z,20
2017-12-14T14:55:30.958Z,20
2017-12-14T14:56:12.273Z,15
2017-12-14T14:56:52.765Z,15
2017-12-14T14:57:34.171Z,15
2017-12-14T14:58:14.776Z,15
2017-12-14T14:58:55.272Z,15
2017-12-14T14:59:36.368Z,10
2017-12-14T15:00:17.064Z,10
2017-12-14T15:01:00.075Z,10
2017-12-14T15:01:42.398Z,10
2017-12-14T15:02:23.078Z,10
2017-12-14T15:03:03.558Z,10
2017-12-14T15:03:44.074Z,5
2017-12-14T15:04:24.605Z,5
2017-12-14T15:05:05.136Z,5
2017-12-14T15:05:45.649Z,5
2017-12-14T15:06:26.165Z,5
2017-12-14T15:07:06.698Z,0
2017-12-14T15:07:49.133Z,0
2017-12-14T15:08:29.663Z,0
2017-12-14T15:09:10.171Z,0
2017-12-14T15:09:50.701Z,0
2017-12-14T15:10:31.302Z,0
2017-12-14T15:11:11.787Z,0
2017-12-14T15:11:52.310Z,0
2017-12-14T15:12:32.831Z,0
2017-12-14T15:13:13.353Z,0
2017-12-14T15:13:53.856Z,0
2017-12-14T15:14:34.423Z,0
2017-12-14T15:15:14.938Z,0
2017-12-14T15:15:55.493Z,0
2017-12-14T15:16:36.010Z,0
2017-12-14T15:17:16.621Z,0
2017-12-14T15:17:57.127Z,0
2017-12-14T15:18:37.650Z,0
2017-12-14T15:19:18.178Z,0
2017-12-14T15:19:58.722Z,0
2017-12-14T15:20:39.252Z,0
2017-12-14T15:21:19.817Z,0
2017-12-14T15:22:00.341Z,0
2017-12-14T15:22:40.875Z,0
2017-12-14T15:23:21.395Z,0
2017-12-14T15:24:02.107Z,0
2017-12-14T15:24:42.636Z,0
2017-12-14T15:25:23.153Z,0
2017-12-14T15:26:03.685Z,0
2017-12-14T15:26:44.215Z,0
2017-12-14T15:27:24.793Z,0
2017-12-14T15:28:05.243Z,0
2017-12-14T15:28:45.791Z,0
2017-12-14T15:29:26.324Z,0
2017-12-14T15:30:06.853Z,0
2017-12-14T15:30:47.374Z,0
2017-12-14T15:31:27.879Z,0
2017-12-14T15:32:08.417Z,0
2017-12-14T15:32:48.935Z,0
2017-12-14T15:33:29.501Z,0
2017-12-14T15:34:10.034Z,0
2017-12-14T15:34:50.559Z,0
2017-12-14T15:35:31.093Z,0
2017-12-14T15:36:11.628Z,0
2017-12-14T15:36:52.161Z,0
2017-12-14T15:37:32.687Z,0
2017-12-14T15:38:13.218Z,0
2017-12-14T15:38:53.744Z,0
2017-12-14T15:39:34.283Z,0
2017-12-14T15:40:14.809Z,0
2017-12-14T15:40:55.336Z,0
2017-12-14T15:41:35.838Z,0
2017-12-14T15:42:16.385Z,0
2017-12-14T15:42:56.894Z,0
2017-12-14T15:43:37.422Z,0
2017-12-14T15:44:17.973Z,0
2017-12-14T15:44:58.502Z,0
2017-12-14T15:45:39.038Z,0
2017-12-14T15:46:19.567Z,0
2017-12-14T15:47:00.102Z,0
2017-12-14T15:47:40.625Z,0
2017-12-14T15:48:21.152Z,0
2017-12-14T15:49:01.681Z,0
2017-12-14T15:49:42.212Z,0
2017-12-14T15:50:22.805Z,0
2017-12-14T15:51:03.280Z,0
2017-12-14T15:51:43.808Z,0
2017-12-14T15:52:24.353Z,0
2017-12-14T15:53:04.884Z,0
2017-12-14T15:53:45.442Z,0
2017-12-14T15:54:25.980Z,0
2017-12-14T15:55:06.516Z,0
2017-12-14T15:55:47.023Z,0
2017-12-14T15:56:27.550Z,0
2017-12-14T15:57:08.080Z,0
2017-12-14T15:57:48.606Z,0
2017-12-14T15:58:29.121Z,0
2017-12-14T15:59:09.641Z,0
2017-12-14T15:59:50.174Z,0
2017-12-14T16:00:30.698Z,0
2017-12-14T16:01:11.200Z,0
2017-12-14T16:01:51.742Z,0
2017-12-14T16:02:32.277Z,0
2017-12-14T16:03:12.834Z,0
2017-12-14T16:03:53.387Z,0
2017-12-14T16:04:33.919Z,0
2017-12-14T16:05:14.439Z,0
2017-12-14T16:05:54.968Z,0
2017-12-14T16:06:35.493Z,0
2017-12-14T16:07:16.022Z,0
2017-12-14T16:07:56.540Z,0
2017-12-14T16:08:37.107Z,0
2017-12-14T16:09:17.643Z,0
2017-12-14T16:09:58.170Z,0
2017-12-14T16:10:38.715Z,0
2017-12-14T16:11:19.247Z,0
2017-12-14T16:11:59.792Z,0
2017-12-14T16:12:40.319Z,0
2017-12-14T16:13:20.851Z,0
2017-12-14T16:14:01.374Z,0
2017-12-14T16:14:41.899Z,0
2017-12-14T16:15:22.463Z,0
2017-12-14T16:16:02.948Z,0
2017-12-14T16:16:43.506Z,0
2017-12-14T16:17:24.046Z,0
2017-12-14T16:18:04.573Z,0
2017-12-14T16:18:45.101Z,0
2017-12-14T16:19:25.631Z,0
2017-12-14T16:20:06.154Z,0
2017-12-14T16:20:46.662Z,0
2017-12-14T16:21:27.202Z,0
2017-12-14T16:22:07.730Z,0
2017-12-14T16:22:48.252Z,0
2017-12-14T16:23:28.782Z,0
2017-12-14T16:24:09.302Z,0
2017-12-14T16:24:49.836Z,0
2017-12-14T16:25:30.361Z,0
2017-12-14T16:26:10.889Z,0
2017-12-14T16:26:51.416Z,0
2017-12-14T16:27:31.943Z,0
2017-12-14T16:28:12.489Z,0
2017-12-14T16:28:53.058Z,0
2017-12-14T16:29:33.628Z,0
2017-12-14T16:30:14.165Z,0
2017-12-14T16:30:54.692Z,0
2017-12-14T16:31:35.218Z,0
2017-12-14T16:32:15.745Z,0
2017-12-14T16:32:56.288Z,0
2017-12-14T16:33:36.815Z,0
2017-12-14T16:34:17.345Z,0
2017-12-14T16:34:57.872Z,0
2017-12-14T16:35:38.402Z,0
2017-12-14T16:36:18.933Z,0
2017-12-14T16:36:59.480Z,0
2017-12-14T16:37:40.007Z,0
2017-12-14T16:38:20.553Z,0
2017-12-14T16:39:01.098Z,0
2017-12-14T16:39:41.602Z,0
2017-12-14T16:40:22.129Z,0
2017-12-14T16:41:02.654Z,0
2017-12-14T16:41:43.182Z,0
2017-12-14T16:42:23.749Z,0
2017-12-14T16:43:04.280Z,0
2017-12-14T16:43:44.807Z,0
2017-12-14T16:44:25.565Z,0
2017-12-14T16:45:06.142Z,0
2017-12-14T16:45:46.672Z,0
2017-12-14T16:46:27.212Z,0
2017-12-14T16:47:07.739Z,0
2017-12-14T16:47:48.274Z,0
2017-12-14T16:48:28.817Z,0
2017-12-14T16:49:09.351Z,0
2017-12-14T16:49:49.892Z,0
2017-12-14T16:50:30.407Z,0
2017-12-14T16:51:10.941Z,0
2017-12-14T16:51:51.462Z,0
2017-12-14T16:52:31.990Z,0
2017-12-14T16:53:12.520Z,0
2017-12-14T16:53:53.042Z,0
2017-12-14T16:54:33.576Z,0
2017-12-14T16:55:14.122Z,0
2017-12-14T16:55:54.639Z,0
2017-12-14T16:56:35.183Z,0
2017-12-14T16:57:15.730Z,0
2017-12-14T16:57:56.251Z,0
2017-12-14T16:58:36.786Z,0
2017-12-14T16:59:17.318Z,0
2017-12-14T16:59:57.868Z,0
2017-12-14T17:00:38.416Z,0
2017-12-14T17:01:18.929Z,0
2017-12-14T17:01:59.444Z,0
2017-12-14T17:02:39.971Z,0
2017-12-14T17:03:20.508Z,0
2017-12-14T17:04:01.035Z,0
2017-12-14T17:04:41.569Z,0
2017-12-14T17:05:22.120Z,0
2017-12-14T17:06:02.650Z,0
2017-12-14T17:06:43.188Z,0
2017-12-14T17:07:23.717Z,0
2017-12-14T17:08:04.241Z,0
2017-12-14T17:08:44.769Z,0
2017-12-14T17:09:25.299Z,0
2017-12-14T17:10:05.822Z,0
2017-12-14T17:10:46.354Z,0
2017-12-14T17:11:26.910Z,0
2017-12-14T17:12:07.443Z,0
2017-12-14T17:12:47.962Z,0
2017-12-14T17:13:28.496Z,0
2017-12-14T17:14:09.028Z,0
2017-12-14T17:14:49.561Z,0
2017-12-14T17:15:30.092Z,0
2017-12-14T17:16:10.625Z,0
2017-12-14T17:16:51.279Z,0
2017-12-14T17:17:31.798Z,0
2017-12-14T17:18:12.330Z,0
2017-12-14T17:18:52.864Z,0
2017-12-14T17:19:33.386Z,0
2017-12-14T17:20:13.906Z,0
2017-12-14T17:20:54.449Z,0
2017-12-14T17:21:34.981Z,0
2017-12-14T17:22:15.504Z,0
2017-12-14T17:22:56.041Z,0
2017-12-14T17:23:36.563Z,0
2017-12-14T17:24:17.096Z,0
2017-12-14T17:24:57.633Z,0
2017-12-14T17:25:38.153Z,0
2017-12-14T17:26:18.684Z,0
2017-12-14T17:26:59.219Z,0
2017-12-14T17:27:39.748Z,0
2017-12-14T17:28:20.276Z,0
2017-12-14T17:29:00.815Z,0
2017-12-14T17:29:41.364Z,0
2017-12-14T17:30:21.886Z,0
2017-12-14T17:31:02.414Z,0
2017-12-14T17:31:42.950Z,0
2017-12-14T17:32:23.537Z,0
2017-12-14T17:33:04.074Z,0
2017-12-14T17:33:44.660Z,0
2017-12-14T17:34:25.190Z,0
2017-12-14T17:35:05.728Z,0
2017-12-14T17:35:46.263Z,0
2017-12-14T17:36:26.794Z,0
2017-12-14T17:37:07.328Z,0
2017-12-14T17:37:47.857Z,0
2017-12-14T17:38:28.397Z,0
2017-12-14T17:39:08.919Z,0
2017-12-14T17:39:49.447Z,0
2017-12-14T17:40:29.983Z,0
2017-12-14T17:41:10.514Z,0
2017-12-14T17:41:51.047Z,0
2017-12-14T17:42:31.567Z,0
2017-12-14T17:43:12.100Z,0
2017-12-14T17:43:52.622Z,0
2017-12-14T17:44:33.148Z,0
2017-12-14T17:45:13.674Z,0
2017-12-14T17:45:54.215Z,0
2017-12-14T17:46:34.722Z,0
2017-12-14T17:47:15.243Z,0
2017-12-14T17:47:55.754Z,0
2017-12-14T17:48:36.294Z,0
2017-12-14T17:49:17.064Z,0
2017-12-14T17:49:57.461Z,0
2017-12-14T17:50:38.005Z,0
2017-12-14T17:51:18.546Z,0
2017-12-14T17:51:59.070Z,0
2017-12-14T17:52:39.591Z,0
2017-12-14T17:53:20.125Z,0